Airport View

Enter AWOS ICAO identifier for current METAR.

ex. KFNL

KMNH 142124Z AUTO 19003KT 10SM CLR 10/M07 A3030 RMK AO2

14 Nov 2018 21:49

Frequency: 134.375

Phone: 303-648-3479

Other Area AWOS: KFLY - KAFF - KAPA - KCOS

TAF KAPA 141725Z 1418/1518 22006KT P6SM FEW220 FM141900 VRB05KT P6SM FEW220 FM150200 19006KT P6SM FEW220 FM151700 02010KT P6SM FEW220